Hachinohe Air Base, Japan

5:13 AM JST on August 23, 2014 (GMT +0900)
Ominato Aero | Change Station
CLOSE
Current Station
Airport
Location: Ominato AB,
Elevation: 33 ft
Nearby Weather Stations

Elev 33 ft 41.23 °N, 141.13 °E | Updated 1 hour ago

Light Rain Showers
Light Showers Rain Mist
72 °F
Feels Like 72 °F
N
9
Wind Variable Wind from West

Today
High -- | Low -- °F
--% Chance of Precip.
Yesterday
High -- | Low -- °F
Precip. -- in
4:51 AM 6:21 PM
Waning Crescent, 7% visible
Pressure 29.80 in
Visibility 3.1 miles
Clouds Few 600 ft
Mostly Cloudy 3000 ft
Dew Point 70 °F
Humidity 94%
Rainfall 0.00 in
Snow Depth Not available.
UV 0 out of 12
Pollen Not available.
Air Quality Not available.
Flu Activity Not available.
SPECI RJSO 221825Z 27008KT 5000 -SHRA BR FEW006 BKN030 22/21 Q1009 RMK 1ST006 7CU030 A2982

More Conditions Fewer Conditions

Pressure 29.80 in
Visibility 3.1 miles
Clouds Few 600 ft
Mostly Cloudy 3000 ft
Dew Point 70 °F
Humidity 94%
Rainfall 0.00 in
Snow Depth Not available.
UV 0 out of 12
Pollen Not available.
Air Quality Not available.
Flu Activity Not available.
SPECI RJSO 221825Z 27008KT 5000 -SHRA BR FEW006 BKN030 22/21 Q1009 RMK 1ST006 7CU030 A2982

More Conditions Fewer Conditions

10-Day Weather Forecast

Almanac

Astronomy

Aug. 23, 2014 Rise Set
Actual Time 4:51 AM JST 6:21 PM JST
Civil Twilight 4:23 AM JST 6:49 PM JST
Nautical Twilight 3:48 AM JST 7:24 PM JST
Astronomical Twilight 3:12 AM JST 8:00 PM JST
Moon 2:33 AM JST (8/23) 4:43 PM JST (8/23)
Length of Visible Light 14h 26m
Length of Day
13h 29m
Tomorrow will be 2m 29s shorter.
Waning Crescent, 7% of the Moon is Illuminated
Aug 22
Waning Crescent
Aug 25
New
Sep 2
First Quarter
Sep 8
Full
Sep 15
Last Quarter

Yesterday's Extremes

Country Highs Country Lows

Community

WunderPhotos

Upload Photos

1,746,239 photos uploaded!

Nearby

Snow Depth

Not available.

Earthquake Activity

City Distance Mag. Time & Date
No recent earthquake activity has been reported nearby.
Minimum magnitude displayed is 2.5.

Coastal Water Temperatures

Place Temperature
No Stations Reporting

Nearby Weather Stations